Time;durP1;ratioP1;P1;durP2;ratioP2;P2;SDS_P1;SDS_P2;PMS_P1;PMS_P2;Temp;Humidity;BMP_temperature;BMP_pressure;BME280_temperature;BME280_humidity;BME280_pressure;Samples;Min_cycle;Max_cycle;Signal;HPM_P1;HPM_P2
2023/01/13 00:01:25;;;;;;;0.00;0.00;;;;;;;;;;10313359;28;20299;-83
2023/01/13 00:06:28;;;;;;;0.00;0.00;;;;;;;;;;10303485;28;20217;-83
2023/01/13 00:11:29;;;;;;;0.00;0.00;;;;;;;;;;10323248;28;20282;-80
2023/01/13 00:16:30;;;;;;;0.10;0.10;;;;;;;;;;10326633;28;20212;-88
2023/01/13 00:21:31;;;;;;;1.98;0.38;;;;;;;;;;10321528;28;20225;-78
2023/01/13 00:26:34;;;;;;;0.00;0.00;;;;;;;;;;10319854;28;20236;-80
2023/01/13 00:31:36;;;;;;;0.00;0.00;;;;;;;;;;10303808;28;20272;-84
2023/01/13 00:36:37;;;;;;;0.00;0.00;;;;;;;;;;10307100;28;20224;-83
2023/01/13 00:46:58;;;;;;;0.00;0.00;;;;;;;;;;10318380;28;20251;-80
2023/01/13 00:51:59;;;;;;;0.10;0.10;;;;;;;;;;10317259;28;20225;-80
2023/01/13 00:57:00;;;;;;;0.00;0.00;;;;;;;;;;10319968;28;20236;-83
2023/01/13 01:02:01;;;;;;;0.00;0.00;;;;;;;;;;10308188;28;20232;-83
2023/01/13 01:07:02;;;;;;;0.00;0.00;;;;;;;;;;10311126;28;20731;-81
2023/01/13 01:12:03;;;;;;;0.00;0.00;;;;;;;;;;10295169;28;20224;-82
2023/01/13 01:17:04;;;;;;;0.00;0.00;;;;;;;;;;10311871;28;20222;-82
2023/01/13 01:22:05;;;;;;;0.10;0.10;;;;;;;;;;10310084;28;20260;-82
2023/01/13 01:27:06;;;;;;;0.20;0.10;;;;;;;;;;10313152;28;20248;-84
2023/01/13 01:32:07;;;;;;;0.00;0.00;;;;;;;;;;10315693;28;20240;-81
2023/01/13 01:37:08;;;;;;;0.00;0.00;;;;;;;;;;10316638;28;20216;-80
2023/01/13 01:47:34;;;;;;;0.00;0.00;;;;;;;;;;10312621;28;20312;-85
2023/01/13 01:52:38;;;;;;;0.00;0.00;;;;;;;;;;10313950;28;20249;-80
2023/01/13 01:57:41;;;;;;;0.00;0.00;;;;;;;;;;10317073;28;20243;-82
2023/01/13 02:02:44;;;;;;;0.00;0.00;;;;;;;;;;10307893;28;20295;-80
2023/01/13 02:07:46;;;;;;;0.00;0.00;;;;;;;;;;10301591;28;20221;-78
2023/01/13 02:12:48;;;;;;;0.00;0.00;;;;;;;;;;10312665;28;20855;-83
2023/01/13 02:18:01;;;;;;;0.00;0.00;;;;;;;;;;10307775;28;20209;-81
2023/01/13 02:34:42;;;;;;;2.03;0.30;;;;;;;;;;10306320;28;20819;-84
2023/01/13 02:39:43;;;;;;;0.10;0.10;;;;;;;;;;10312285;28;20224;-84
2023/01/13 02:44:51;;;;;;;1.35;0.00;;;;;;;;;;10305314;28;20746;-81
2023/01/13 02:49:55;;;;;;;0.00;0.00;;;;;;;;;;10303695;28;20632;-82
2023/01/13 02:55:01;;;;;;;0.55;0.00;;;;;;;;;;10310720;28;20639;-80
2023/01/13 03:00:03;;;;;;;0.00;0.00;;;;;;;;;;10310535;28;20266;-84
2023/01/13 03:05:05;;;;;;;0.00;0.00;;;;;;;;;;10302459;28;20341;-81
2023/01/13 03:10:19;;;;;;;0.00;0.00;;;;;;;;;;10299693;28;20216;-82
2023/01/13 03:15:28;;;;;;;0.03;0.03;;;;;;;;;;10303537;28;20216;-79
2023/01/13 03:20:34;;;;;;;0.25;0.10;;;;;;;;;;10312160;28;20220;-78
2023/01/13 03:25:39;;;;;;;0.00;0.00;;;;;;;;;;10313609;28;20224;-78
2023/01/13 03:30:47;;;;;;;0.20;0.20;;;;;;;;;;10298558;28;20279;-85
2023/01/13 03:35:51;;;;;;;0.20;0.20;;;;;;;;;;10307960;28;20232;-83
2023/01/13 03:40:54;;;;;;;0.20;0.20;;;;;;;;;;10317421;28;20242;-85
2023/01/13 03:45:58;;;;;;;0.20;0.20;;;;;;;;;;10315412;28;20201;-77
2023/01/13 03:51:05;;;;;;;0.10;0.10;;;;;;;;;;10317058;28;20700;-80
2023/01/13 03:56:17;;;;;;;0.10;0.10;;;;;;;;;;10313169;28;20476;-82
2023/01/13 04:01:24;;;;;;;0.00;0.00;;;;;;;;;;10317333;28;20308;-79
2023/01/13 04:06:30;;;;;;;0.03;0.03;;;;;;;;;;10314963;28;20221;-82
2023/01/13 04:11:33;;;;;;;0.95;0.10;;;;;;;;;;10317604;28;20239;-80
2023/01/13 04:16:34;;;;;;;0.08;0.08;;;;;;;;;;10310187;28;20221;-78
2023/01/13 04:21:35;;;;;;;0.85;0.00;;;;;;;;;;10316477;28;20224;-86
2023/01/13 04:26:36;;;;;;;0.00;0.00;;;;;;;;;;10312795;28;20395;-82
2023/01/13 04:31:37;;;;;;;0.00;0.00;;;;;;;;;;10313401;28;20538;-85
2023/01/13 04:36:38;;;;;;;0.10;0.10;;;;;;;;;;10300898;28;20311;-82
2023/01/13 04:41:58;;;;;;;0.08;0.08;;;;;;;;;;10324417;28;20224;-81
2023/01/13 04:46:59;;;;;;;3.85;0.20;;;;;;;;;;10320776;28;20251;-86
2023/01/13 04:52:02;;;;;;;0.50;0.40;;;;;;;;;;10312955;28;20236;-81
2023/01/13 04:57:03;;;;;;;0.10;0.10;;;;;;;;;;10321671;28;20213;-84
2023/01/13 05:02:07;;;;;;;0.05;0.05;;;;;;;;;;10317799;28;20224;-79
2023/01/13 05:07:08;;;;;;;0.22;0.10;;;;;;;;;;10320492;28;20410;-85
2023/01/13 05:17:30;;;;;;;0.10;0.10;;;;;;;;;;10317480;28;20212;-85
2023/01/13 05:27:53;;;;;;;0.08;0.08;;;;;;;;;;10326095;28;20279;-83
2023/01/13 05:32:54;;;;;;;2.35;0.10;;;;;;;;;;10318694;28;20420;-88
2023/01/13 05:37:55;;;;;;;0.05;0.05;;;;;;;;;;10307596;28;20692;-84
2023/01/13 05:43:18;;;;;;;1.77;0.10;;;;;;;;;;10316109;28;20764;-84
2023/01/13 05:48:21;;;;;;;0.10;0.10;;;;;;;;;;10309588;28;20280;-85
2023/01/13 05:53:22;;;;;;;0.10;0.10;;;;;;;;;;10310579;28;20343;-84
2023/01/13 05:58:25;;;;;;;0.43;0.10;;;;;;;;;;10313047;28;20240;-81
2023/01/13 06:03:26;;;;;;;0.08;0.03;;;;;;;;;;10313573;28;20220;-80
2023/01/13 06:08:27;;;;;;;0.00;0.00;;;;;;;;;;10301365;28;20225;-80
2023/01/13 06:13:29;;;;;;;0.28;0.10;;;;;;;;;;10313453;28;20312;-85
2023/01/13 06:18:30;;;;;;;0.35;0.10;;;;;;;;;;10311630;28;20233;-86
2023/01/13 06:23:34;;;;;;;0.30;0.15;;;;;;;;;;10315976;28;20303;-85
2023/01/13 06:28:35;;;;;;;0.20;0.20;;;;;;;;;;10320206;28;20283;-80
2023/01/13 06:33:40;;;;;;;1.67;0.20;;;;;;;;;;10306619;28;20280;-84
2023/01/13 06:38:42;;;;;;;0.40;0.17;;;;;;;;;;10316501;28;20209;-82
2023/01/13 06:43:43;;;;;;;0.28;0.28;;;;;;;;;;10303843;28;20213;-82
2023/01/13 06:48:44;;;;;;;3.78;0.20;;;;;;;;;;10311426;28;20220;-83
2023/01/13 06:53:45;;;;;;;0.10;0.10;;;;;;;;;;10300252;28;20224;-84
2023/01/13 06:58:46;;;;;;;1.05;0.32;;;;;;;;;;10304635;28;20227;-81
2023/01/13 07:03:47;;;;;;;1.67;0.20;;;;;;;;;;10312555;28;20217;-85
2023/01/13 07:08:49;;;;;;;1.27;0.20;;;;;;;;;;10308734;28;20232;-82
2023/01/13 07:19:10;;;;;;;5.47;0.30;;;;;;;;;;10312956;28;20321;-87
2023/01/13 07:24:11;;;;;;;0.45;0.30;;;;;;;;;;10311159;28;20305;-85
2023/01/13 07:29:12;;;;;;;1.40;0.28;;;;;;;;;;10314348;28;20309;-83
2023/01/13 07:34:13;;;;;;;2.47;0.20;;;;;;;;;;10304072;28;20596;-86
2023/01/13 07:39:14;;;;;;;3.17;0.20;;;;;;;;;;10310457;28;20213;-81
2023/01/13 07:44:15;;;;;;;2.03;0.30;;;;;;;;;;10311447;28;20316;-84
2023/01/13 07:49:16;;;;;;;2.85;0.20;;;;;;;;;;10315317;28;20651;-83
2023/01/13 07:54:17;;;;;;;1.10;0.30;;;;;;;;;;10310618;28;20223;-83
2023/01/13 07:59:18;;;;;;;1.83;0.40;;;;;;;;;;10278316;28;20927;-85
2023/01/13 08:04:20;;;;;;;2.95;0.28;;;;;;;;;;10308462;28;20213;-84
2023/01/13 08:09:21;;;;;;;1.05;0.20;;;;;;;;;;10313343;28;20576;-84
2023/01/13 08:14:22;;;;;;;1.35;0.22;;;;;;;;;;10316921;28;20216;-85
2023/01/13 08:19:23;;;;;;;0.73;0.20;;;;;;;;;;10320377;28;20426;-84
2023/01/13 08:24:24;;;;;;;0.10;0.10;;;;;;;;;;10317764;28;20253;-85
2023/01/13 08:29:25;;;;;;;0.15;0.15;;;;;;;;;;10318050;28;20303;-82
2023/01/13 08:34:26;;;;;;;0.10;0.10;;;;;;;;;;10322274;28;20294;-89
2023/01/13 08:39:27;;;;;;;2.70;0.20;;;;;;;;;;10309337;28;20225;-80
2023/01/13 08:44:29;;;;;;;0.15;0.10;;;;;;;;;;10316005;28;20275;-83
2023/01/13 08:49:30;;;;;;;0.35;0.20;;;;;;;;;;10323987;28;20209;-84
2023/01/13 08:54:31;;;;;;;0.38;0.10;;;;;;;;;;10326342;28;20449;-89
2023/01/13 08:59:33;;;;;;;0.20;0.20;;;;;;;;;;10320656;28;20217;-81
2023/01/13 09:04:34;;;;;;;0.10;0.10;;;;;;;;;;10323358;28;20232;-83
2023/01/13 09:09:35;;;;;;;0.32;0.20;;;;;;;;;;10320825;28;20221;-81
2023/01/13 09:14:37;;;;;;;0.20;0.20;;;;;;;;;;10315969;28;20231;-83
2023/01/13 09:19:39;;;;;;;0.68;0.20;;;;;;;;;;10317030;28;20460;-82
2023/01/13 09:24:40;;;;;;;0.82;0.20;;;;;;;;;;10318330;28;20711;-82
2023/01/13 09:29:41;;;;;;;1.20;0.30;;;;;;;;;;10298464;28;20224;-84
2023/01/13 09:35:00;;;;;;;0.10;0.10;;;;;;;;;;10317402;28;20278;-83
2023/01/13 09:40:02;;;;;;;1.17;0.10;;;;;;;;;;10316412;28;20200;-85
2023/01/13 09:45:06;;;;;;;2.35;0.32;;;;;;;;;;10312659;28;20240;-82
2023/01/13 09:50:17;;;;;;;2.35;0.20;;;;;;;;;;10319962;28;20223;-84
2023/01/13 09:55:35;;;;;;;0.60;0.50;;;;;;;;;;10314235;28;20204;-80
2023/01/13 10:00:40;;;;;;;3.10;0.28;;;;;;;;;;10308270;28;20213;-82
2023/01/13 10:05:49;;;;;;;3.45;0.32;;;;;;;;;;10316220;28;20311;-85
2023/01/13 10:10:54;;;;;;;0.55;0.10;;;;;;;;;;10310265;28;20248;-81
2023/01/13 10:15:58;;;;;;;2.42;0.30;;;;;;;;;;10300093;28;20220;-81
2023/01/13 10:21:07;;;;;;;2.47;0.40;;;;;;;;;;10295061;28;20220;-83
2023/01/13 10:26:13;;;;;;;2.95;0.22;;;;;;;;;;10309043;28;20562;-82
2023/01/13 10:31:16;;;;;;;0.28;0.22;;;;;;;;;;10286293;28;20296;-81
2023/01/13 10:36:21;;;;;;;0.52;0.30;;;;;;;;;;10309393;28;20217;-79
2023/01/13 10:41:25;;;;;;;3.67;0.20;;;;;;;;;;10308641;28;20649;-80
2023/01/13 10:46:26;;;;;;;1.20;0.30;;;;;;;;;;10305836;28;20217;-81
2023/01/13 10:51:29;;;;;;;0.95;0.35;;;;;;;;;;10305645;28;20224;-80
2023/01/13 10:56:31;;;;;;;0.32;0.20;;;;;;;;;;10308986;28;20249;-81
2023/01/13 11:01:32;;;;;;;0.32;0.32;;;;;;;;;;10306473;28;20333;-79
2023/01/13 11:06:34;;;;;;;0.20;0.20;;;;;;;;;;10304424;28;20220;-81
2023/01/13 11:11:40;;;;;;;5.70;0.50;;;;;;;;;;10302900;28;20588;-82
2023/01/13 11:16:43;;;;;;;1.35;0.47;;;;;;;;;;10303680;28;20224;-81
2023/01/13 11:21:59;;;;;;;1.30;0.30;;;;;;;;;;10301208;28;20616;-80
2023/01/13 11:27:16;;;;;;;1.90;0.30;;;;;;;;;;10297662;28;20220;-81
2023/01/13 11:32:18;;;;;;;4.18;0.40;;;;;;;;;;10299861;28;20852;-81
2023/01/13 11:37:23;;;;;;;1.85;0.20;;;;;;;;;;10285675;28;20217;-80
2023/01/13 11:42:35;;;;;;;3.25;0.30;;;;;;;;;;10284930;28;20308;-84
2023/01/13 11:47:36;;;;;;;1.42;0.40;;;;;;;;;;10282664;28;20220;-79
2023/01/13 11:52:56;;;;;;;2.28;0.25;;;;;;;;;;10303000;28;20689;-83
2023/01/13 11:57:57;;;;;;;2.15;0.30;;;;;;;;;;10285397;28;20257;-82
2023/01/13 12:03:21;;;;;;;1.10;0.45;;;;;;;;;;10299552;28;20236;-80
2023/01/13 12:08:27;;;;;;;1.52;0.40;;;;;;;;;;10293834;28;20259;-80
2023/01/13 12:13:44;;;;;;;4.72;0.40;;;;;;;;;;10292732;28;20248;-80
2023/01/13 12:19:06;;;;;;;1.00;0.20;;;;;;;;;;10301845;28;20219;-82
2023/01/13 12:24:36;;;;;;;3.65;0.55;;;;;;;;;;10288183;28;20913;-81
2023/01/13 12:29:38;;;;;;;1.85;0.30;;;;;;;;;;10251656;28;20316;-84
2023/01/13 12:35:06;;;;;;;1.30;0.32;;;;;;;;;;10300589;28;20218;-85
2023/01/13 12:40:24;;;;;;;0.70;0.30;;;;;;;;;;10279848;28;20252;-80
2023/01/13 12:45:27;;;;;;;1.00;0.40;;;;;;;;;;10302631;28;20593;-83
2023/01/13 12:50:28;;;;;;;2.60;0.50;;;;;;;;;;10295697;28;20707;-82
2023/01/13 12:55:35;;;;;;;4.00;0.40;;;;;;;;;;10300883;28;20221;-79
2023/01/13 13:00:39;;;;;;;1.67;0.40;;;;;;;;;;10306603;28;20213;-81
2023/01/13 13:05:59;;;;;;;2.90;0.30;;;;;;;;;;10310169;28;20225;-81
2023/01/13 13:11:04;;;;;;;5.43;0.57;;;;;;;;;;10298813;28;20260;-84
2023/01/13 13:16:24;;;;;;;2.95;0.40;;;;;;;;;;10294090;28;20284;-81
2023/01/13 13:21:45;;;;;;;1.65;0.45;;;;;;;;;;10303649;28;20598;-83
2023/01/13 13:26:46;;;;;;;3.60;0.60;;;;;;;;;;10290085;28;20217;-81
2023/01/13 13:32:06;;;;;;;1.45;0.20;;;;;;;;;;10291655;28;20228;-80
2023/01/13 13:37:07;;;;;;;2.90;0.50;;;;;;;;;;10291923;28;20947;-80
2023/01/13 13:47:37;;;;;;;1.73;0.50;;;;;;;;;;10291518;28;20221;-75
2023/01/13 13:52:41;;;;;;;0.65;0.25;;;;;;;;;;10291246;28;20241;-80
2023/01/13 13:57:44;;;;;;;9.43;0.43;;;;;;;;;;10294039;28;20214;-75
2023/01/13 14:02:47;;;;;;;2.30;0.30;;;;;;;;;;10298199;28;20213;-80
2023/01/13 14:07:50;;;;;;;0.75;0.30;;;;;;;;;;10308691;28;20274;-83
2023/01/13 14:12:51;;;;;;;0.98;0.32;;;;;;;;;;10281142;28;20274;-79
2023/01/13 14:17:52;;;;;;;0.38;0.20;;;;;;;;;;10301985;28;20212;-82
2023/01/13 14:22:59;;;;;;;1.40;0.20;;;;;;;;;;10301354;28;20224;-83
2023/01/13 14:28:06;;;;;;;3.55;0.35;;;;;;;;;;10280401;28;20224;-83
2023/01/13 14:33:11;;;;;;;0.75;0.30;;;;;;;;;;10301991;28;20680;-77
2023/01/13 14:38:15;;;;;;;0.20;0.20;;;;;;;;;;10287457;28;20795;-80
2023/01/13 14:43:18;;;;;;;1.58;0.20;;;;;;;;;;10286520;28;20244;-81
2023/01/13 14:48:20;;;;;;;4.53;0.70;;;;;;;;;;10291253;28;20221;-80
2023/01/13 14:53:47;;;;;;;0.80;0.40;;;;;;;;;;10297327;28;20828;-86
2023/01/13 14:58:48;;;;;;;0.35;0.35;;;;;;;;;;10300513;28;20209;-86
2023/01/13 15:03:49;;;;;;;2.72;0.52;;;;;;;;;;10298118;28;20219;-87
2023/01/13 15:08:51;;;;;;;0.70;0.50;;;;;;;;;;10300489;28;20224;-80
2023/01/13 15:13:56;;;;;;;3.50;0.60;;;;;;;;;;10288799;28;20256;-80
2023/01/13 15:18:57;;;;;;;5.45;0.60;;;;;;;;;;10297463;28;20249;-79
2023/01/13 15:23:58;;;;;;;0.88;0.75;;;;;;;;;;10284417;28;20224;-82
2023/01/13 15:29:00;;;;;;;0.88;0.50;;;;;;;;;;10287015;28;20229;-80
2023/01/13 15:34:01;;;;;;;5.22;1.17;;;;;;;;;;10296585;28;20288;-80
2023/01/13 15:39:02;;;;;;;4.93;1.80;;;;;;;;;;10291230;28;20213;-81
2023/01/13 15:49:37;;;;;;;9.23;1.02;;;;;;;;;;10301690;28;20212;-83
2023/01/13 15:54:38;;;;;;;2.20;0.50;;;;;;;;;;10289596;28;20315;-79
2023/01/13 15:59:39;;;;;;;0.65;0.38;;;;;;;;;;10306392;28;20220;-84
2023/01/13 16:04:40;;;;;;;2.97;0.40;;;;;;;;;;10299950;28;20247;-82
2023/01/13 16:09:42;;;;;;;3.65;0.30;;;;;;;;;;10296265;28;20304;-76
2023/01/13 16:14:43;;;;;;;0.93;0.50;;;;;;;;;;10283433;28;20269;-79
2023/01/13 16:19:44;;;;;;;2.38;0.50;;;;;;;;;;10286346;28;20291;-76
2023/01/13 16:24:47;;;;;;;0.50;0.40;;;;;;;;;;10286751;28;20624;-82
2023/01/13 16:29:48;;;;;;;0.60;0.30;;;;;;;;;;10290350;28;20300;-80
2023/01/13 16:34:49;;;;;;;1.10;0.20;;;;;;;;;;10296796;28;20373;-82
2023/01/13 16:39:51;;;;;;;2.40;0.55;;;;;;;;;;10301500;28;20209;-83
2023/01/13 16:44:52;;;;;;;1.15;0.20;;;;;;;;;;10291516;28;20217;-80
2023/01/13 16:49:53;;;;;;;1.88;0.30;;;;;;;;;;10311787;28;20360;-83
2023/01/13 16:54:54;;;;;;;3.30;0.50;;;;;;;;;;10300274;28;20349;-74
2023/01/13 16:59:55;;;;;;;2.92;0.70;;;;;;;;;;10292928;28;20798;-77
2023/01/13 17:04:56;;;;;;;4.18;0.47;;;;;;;;;;10295878;28;20244;-74
2023/01/13 17:09:57;;;;;;;4.72;0.95;;;;;;;;;;10306428;28;20824;-77
2023/01/13 17:14:58;;;;;;;0.43;0.43;;;;;;;;;;10312365;28;20227;-75
2023/01/13 17:19:59;;;;;;;1.98;0.60;;;;;;;;;;10297731;28;20768;-77
2023/01/13 17:25:00;;;;;;;5.47;0.82;;;;;;;;;;10297025;28;20225;-83
2023/01/13 17:30:01;;;;;;;1.35;0.75;;;;;;;;;;10299936;28;20212;-80
2023/01/13 17:35:02;;;;;;;4.70;0.65;;;;;;;;;;10295325;28;20217;-81
2023/01/13 17:40:04;;;;;;;1.23;0.75;;;;;;;;;;10298540;28;20201;-81
2023/01/13 17:45:05;;;;;;;0.43;0.40;;;;;;;;;;10306194;28;20182;-80
2023/01/13 17:50:07;;;;;;;2.58;0.43;;;;;;;;;;10299368;28;20217;-83
2023/01/13 17:55:08;;;;;;;0.40;0.20;;;;;;;;;;10301503;28;20249;-85
2023/01/13 18:00:10;;;;;;;1.08;0.50;;;;;;;;;;10297698;28;20709;-85
2023/01/13 18:05:14;;;;;;;2.47;0.40;;;;;;;;;;10305319;28;20185;-84
2023/01/13 18:10:16;;;;;;;1.58;0.50;;;;;;;;;;10316838;28;20697;-82
2023/01/13 18:15:17;;;;;;;1.27;0.40;;;;;;;;;;10324260;28;20182;-83
2023/01/13 18:30:59;;;;;;;0.70;0.40;;;;;;;;;;10292581;28;20404;-78
2023/01/13 18:36:05;;;;;;;3.63;0.43;;;;;;;;;;10295702;28;20872;-88
2023/01/13 18:42:50;;;;;;;2.25;0.35;;;;;;;;;;10283075;28;20213;-81
2023/01/13 18:46:27;;;;;;;0.40;0.40;;;;;;;;;;10297083;28;20551;-80
2023/01/13 18:51:28;;;;;;;3.25;0.73;;;;;;;;;;10292751;28;20268;-79
2023/01/13 18:56:30;;;;;;;1.50;0.50;;;;;;;;;;10289043;28;20219;-78
2023/01/13 19:01:31;;;;;;;0.85;0.50;;;;;;;;;;10289623;28;20221;-78
2023/01/13 19:06:32;;;;;;;1.20;0.50;;;;;;;;;;10276798;28;20261;-77
2023/01/13 19:11:34;;;;;;;0.57;0.50;;;;;;;;;;10291222;28;20617;-77
2023/01/13 19:16:35;;;;;;;0.40;0.40;;;;;;;;;;10268603;28;20216;-78
2023/01/13 19:21:36;;;;;;;2.13;0.50;;;;;;;;;;10294734;28;20233;-81
2023/01/13 19:26:38;;;;;;;1.75;0.50;;;;;;;;;;10284311;28;20304;-81
2023/01/13 19:31:39;;;;;;;0.88;0.40;;;;;;;;;;10300514;28;20217;-80
2023/01/13 19:36:40;;;;;;;1.75;0.50;;;;;;;;;;10275612;28;20228;-77
2023/01/13 19:47:02;;;;;;;0.93;0.63;;;;;;;;;;10291224;28;20216;-80
2023/01/13 19:52:03;;;;;;;2.45;0.90;;;;;;;;;;10262332;28;20220;-83
2023/01/13 19:57:05;;;;;;;1.80;0.50;;;;;;;;;;10288433;28;20213;-78
2023/01/13 20:02:14;;;;;;;0.63;0.63;;;;;;;;;;10281445;28;20248;-81
2023/01/13 20:07:15;;;;;;;2.17;0.40;;;;;;;;;;10289113;28;20570;-84
2023/01/13 20:12:16;;;;;;;0.75;0.60;;;;;;;;;;10291249;28;20236;-77
2023/01/13 20:17:18;;;;;;;1.98;0.30;;;;;;;;;;10273455;28;20220;-79
2023/01/13 20:22:20;;;;;;;1.42;0.40;;;;;;;;;;10290080;28;20240;-83
2023/01/13 20:27:22;;;;;;;2.13;0.57;;;;;;;;;;10292720;28;20586;-79
2023/01/13 20:32:23;;;;;;;1.48;0.77;;;;;;;;;;10289744;28;20373;-80
2023/01/13 20:37:24;;;;;;;1.25;0.50;;;;;;;;;;10290884;28;20228;-82
2023/01/13 20:42:28;;;;;;;0.60;0.60;;;;;;;;;;10275069;28;20209;-81
2023/01/13 20:47:30;;;;;;;0.82;0.50;;;;;;;;;;10283371;28;20263;-77
2023/01/13 20:52:31;;;;;;;2.95;0.68;;;;;;;;;;10268412;28;20232;-77
2023/01/13 20:57:32;;;;;;;0.68;0.50;;;;;;;;;;10290119;28;20220;-79
2023/01/13 21:02:33;;;;;;;2.67;0.57;;;;;;;;;;10284964;28;20217;-77
2023/01/13 21:07:34;;;;;;;3.85;0.50;;;;;;;;;;10293142;28;20511;-78
2023/01/13 21:23:15;;;;;;;1.33;0.50;;;;;;;;;;10290522;28;20272;-79
2023/01/13 21:28:17;;;;;;;1.73;0.50;;;;;;;;;;10288155;28;20572;-78
2023/01/13 21:33:18;;;;;;;2.97;0.70;;;;;;;;;;10295328;28;20363;-79
2023/01/13 21:38:19;;;;;;;2.55;0.77;;;;;;;;;;10300681;28;20252;-80
2023/01/13 21:48:39;;;;;;;1.08;0.70;;;;;;;;;;10296186;28;20225;-80
2023/01/13 21:53:40;;;;;;;2.30;0.50;;;;;;;;;;10299276;28;20236;-77
2023/01/13 21:58:42;;;;;;;1.58;0.80;;;;;;;;;;10300902;28;20221;-79
2023/01/13 22:09:02;;;;;;;2.10;0.57;;;;;;;;;;10285802;28;20221;-78
2023/01/13 22:14:12;;;;;;;1.35;0.47;;;;;;;;;;10278722;28;20232;-79
2023/01/13 22:19:13;;;;;;;1.30;0.60;;;;;;;;;;10299489;28;20694;-77
2023/01/13 22:24:14;;;;;;;1.40;1.00;;;;;;;;;;10295371;28;20228;-80
2023/01/13 22:29:15;;;;;;;1.88;0.73;;;;;;;;;;10262386;28;20725;-78
2023/01/13 22:34:16;;;;;;;2.05;0.60;;;;;;;;;;10297641;28;23021;-79
2023/01/13 22:39:19;;;;;;;4.18;0.90;;;;;;;;;;10298077;28;20221;-77
2023/01/13 22:44:21;;;;;;;1.88;0.80;;;;;;;;;;10298266;28;20233;-79
2023/01/13 22:49:22;;;;;;;1.30;0.73;;;;;;;;;;10297611;28;20228;-80
2023/01/13 22:54:23;;;;;;;0.95;0.60;;;;;;;;;;10296316;28;20224;-79
2023/01/13 22:59:24;;;;;;;0.70;0.40;;;;;;;;;;10296925;28;20220;-79
2023/01/13 23:04:25;;;;;;;2.28;0.50;;;;;;;;;;10297254;28;20243;-79
2023/01/13 23:09:29;;;;;;;2.35;0.50;;;;;;;;;;10284151;28;20304;-79
2023/01/13 23:14:30;;;;;;;0.93;0.52;;;;;;;;;;10275233;28;20229;-80
2023/01/13 23:19:31;;;;;;;3.05;0.60;;;;;;;;;;10293600;28;20220;-80
2023/01/13 23:24:33;;;;;;;3.67;0.80;;;;;;;;;;10296221;28;20228;-81
2023/01/13 23:29:34;;;;;;;2.72;0.73;;;;;;;;;;10296468;28;20213;-79
2023/01/13 23:34:35;;;;;;;0.82;0.50;;;;;;;;;;10292553;28;20260;-80
2023/01/13 23:39:36;;;;;;;1.20;0.68;;;;;;;;;;10273633;28;20915;-80
2023/01/13 23:44:37;;;;;;;3.33;1.02;;;;;;;;;;10295425;28;20247;-78
2023/01/13 23:49:39;;;;;;;2.65;0.80;;;;;;;;;;10299658;28;20225;-79
2023/01/13 23:54:40;;;;;;;6.15;1.00;;;;;;;;;;10279290;28;20975;-80
2023/01/13 23:59:41;;;;;;;2.20;0.77;;;;;;;;;;10282213;28;20209;-80
